Time;durP1;ratioP1;P1;durP2;ratioP2;P2;SDS_P1;SDS_P2;PMS_P1;PMS_P2;Temp;Humidity;BMP_temperature;BMP_pressure;BME280_temperature;BME280_humidity;BME280_pressure;Samples;Min_cycle;Max_cycle;Signal;HPM_P1;HPM_P2
2021/11/22 00:01:21;;;;;;;8.82;5.30;;;8.30;72.20;;;;;;2550083;53;21014;-69
2021/11/22 00:03:47;;;;;;;8.57;4.62;;;8.30;72.20;;;;;;2320999;54;20934;-70
2021/11/22 00:06:14;;;;;;;8.07;5.12;;;8.30;72.20;;;;;;2340388;54;20941;-70
2021/11/22 00:08:43;;;;;;;9.88;5.35;;;8.40;72.40;;;;;;2333057;54;21549;-69
2021/11/22 00:11:11;;;;;;;8.10;4.60;;;8.40;72.40;;;;;;2311363;55;21060;-70
2021/11/22 00:13:37;;;;;;;9.73;5.20;;;8.40;72.30;;;;;;2327961;54;20958;-69
2021/11/22 00:16:04;;;;;;;7.62;5.12;;;8.40;72.40;;;;;;2322883;54;20942;-71
2021/11/22 00:18:30;;;;;;;8.18;4.70;;;8.40;72.40;;;;;;2324140;54;21580;-70
2021/11/22 00:20:57;;;;;;;8.00;4.57;;;8.40;72.40;;;;;;2342439;54;21040;-70
2021/11/22 00:23:23;;;;;;;7.97;4.37;;;8.50;72.50;;;;;;2342496;54;21320;-70
2021/11/22 00:25:51;;;;;;;7.62;4.65;;;8.50;72.50;;;;;;2339818;54;21106;-70
2021/11/22 00:28:18;;;;;;;8.80;5.47;;;8.50;72.50;;;;;;2302572;54;20940;-70
2021/11/22 00:30:44;;;;;;;7.37;4.75;;;8.50;72.30;;;;;;2341988;54;21059;-70
2021/11/22 00:33:12;;;;;;;10.77;5.65;;;8.50;72.20;;;;;;2342626;54;20981;-70
2021/11/22 00:35:41;;;;;;;10.70;5.78;;;8.50;72.20;;;;;;2342494;54;21025;-71
2021/11/22 00:38:14;;;;;;;8.73;5.05;;;8.50;72.30;;;;;;2342395;54;20969;-70
2021/11/22 00:40:50;;;;;;;7.85;4.75;;;8.50;72.00;;;;;;2342771;54;20992;-71
2021/11/22 00:43:20;;;;;;;7.75;4.95;;;8.50;72.10;;;;;;2318610;54;21001;-71
2021/11/22 00:45:51;;;;;;;8.32;4.55;;;8.50;72.10;;;;;;2319865;54;20970;-71
2021/11/22 00:48:35;;;;;;;9.57;5.40;;;8.50;72.00;;;;;;2318780;54;21008;-70
2021/11/22 00:51:02;;;;;;;8.60;4.50;;;8.50;71.80;;;;;;2328298;54;20925;-69
2021/11/22 00:53:32;;;;;;;8.30;4.82;;;8.50;72.10;;;;;;2342780;54;20952;-71
2021/11/22 00:56:00;;;;;;;8.13;4.70;;;8.50;72.10;;;;;;2564515;53;21001;-69
2021/11/22 00:58:26;;;;;;;7.85;4.28;;;8.50;72.00;;;;;;2581412;53;20933;-70
2021/11/22 01:00:53;;;;;;;8.75;4.95;;;8.50;72.10;;;;;;2556301;53;21525;-70
2021/11/22 01:03:19;;;;;;;7.25;4.37;;;8.50;72.10;;;;;;2541437;53;21538;-70
2021/11/22 01:05:45;;;;;;;6.87;4.12;;;8.50;72.10;;;;;;2316295;54;20991;-70
2021/11/22 01:08:14;;;;;;;8.13;4.62;;;8.50;72.20;;;;;;2308318;54;20974;-70
2021/11/22 01:10:40;;;;;;;8.23;5.15;;;8.60;72.90;;;;;;2331577;54;20972;-70
2021/11/22 01:13:07;;;;;;;8.60;4.60;;;8.50;72.10;;;;;;2345605;54;20993;-70
2021/11/22 01:15:34;;;;;;;9.18;5.10;;;8.50;72.20;;;;;;2319899;54;20933;-70
2021/11/22 01:18:01;;;;;;;9.00;5.05;;;8.60;72.30;;;;;;2580327;53;20925;-70
2021/11/22 01:20:31;;;;;;;9.27;5.07;;;8.50;72.20;;;;;;2342026;54;21036;-71
2021/11/22 01:23:05;;;;;;;7.78;4.75;;;8.50;72.10;;;;;;2556040;53;21473;-70
2021/11/22 01:25:31;;;;;;;10.80;5.43;;;8.60;72.10;;;;;;2319298;55;20965;-71
2021/11/22 01:27:58;;;;;;;9.15;4.60;;;8.60;72.10;;;;;;2566175;53;21069;-69
2021/11/22 01:30:25;;;;;;;7.55;4.47;;;8.60;72.10;;;;;;2313720;54;21024;-70
2021/11/22 01:32:51;;;;;;;9.25;5.30;;;8.50;72.00;;;;;;2566018;53;20922;-69
2021/11/22 01:35:21;;;;;;;9.10;4.85;;;8.60;72.10;;;;;;2332849;54;21096;-69
2021/11/22 01:37:47;;;;;;;7.80;5.07;;;8.60;72.10;;;;;;2556672;53;20920;-70
2021/11/22 01:40:15;;;;;;;9.18;5.45;;;8.50;71.90;;;;;;2343499;54;20956;-71
2021/11/22 01:42:42;;;;;;;8.32;5.12;;;8.50;71.80;;;;;;2332675;54;20977;-71
2021/11/22 01:45:10;;;;;;;8.88;5.07;;;8.50;71.90;;;;;;2329402;54;20945;-70
2021/11/22 01:47:37;;;;;;;8.27;4.90;;;8.50;71.90;;;;;;2588503;53;21048;-70
2021/11/22 01:50:07;;;;;;;7.62;4.70;;;8.50;71.90;;;;;;2588158;53;21465;-71
2021/11/22 01:52:33;;;;;;;8.38;5.00;;;8.50;72.00;;;;;;2556617;53;21723;-70
2021/11/22 01:55:00;;;;;;;9.27;5.35;;;8.50;72.10;;;;;;2340846;54;20957;-70
2021/11/22 01:57:26;;;;;;;8.90;4.97;;;8.50;72.10;;;;;;2587398;53;22370;-70
2021/11/22 01:59:52;;;;;;;7.68;4.90;;;8.50;72.10;;;;;;2342883;54;21076;-69
2021/11/22 02:02:19;;;;;;;8.13;4.95;;;8.50;72.00;;;;;;2561527;53;20990;-71
2021/11/22 02:04:46;;;;;;;7.68;4.70;;;8.50;72.10;;;;;;2337847;54;20965;-71
2021/11/22 02:07:12;;;;;;;9.18;4.87;;;8.50;72.20;;;;;;2579696;53;20973;-70
2021/11/22 02:09:38;;;;;;;9.73;6.15;;;8.50;72.20;;;;;;2562857;53;20964;-70
2021/11/22 02:12:07;;;;;;;10.25;5.50;;;8.50;72.10;;;;;;2341919;54;20945;-70
2021/11/22 02:14:34;;;;;;;9.85;5.47;;;8.50;72.10;;;;;;2556463;53;20944;-70
2021/11/22 02:17:03;;;;;;;8.10;4.87;;;8.50;72.10;;;;;;2556080;53;20940;-71
2021/11/22 02:19:34;;;;;;;7.28;4.50;;;8.50;72.10;;;;;;2342254;54;20913;-71
2021/11/22 02:22:00;;;;;;;8.15;5.37;;;8.50;72.20;;;;;;2555521;53;20974;-71
2021/11/22 02:24:26;;;;;;;7.65;4.62;;;8.50;72.10;;;;;;2540851;54;20949;-70
2021/11/22 02:26:56;;;;;;;7.70;4.78;;;8.50;72.10;;;;;;2314193;54;20971;-69
2021/11/22 02:29:22;;;;;;;9.18;4.87;;;8.50;72.90;;;;;;2320208;54;21523;-70
2021/11/22 02:31:49;;;;;;;7.43;4.53;;;8.50;72.20;;;;;;2319344;54;20990;-70
2021/11/22 02:34:15;;;;;;;8.73;4.87;;;8.50;72.20;;;;;;2582318;53;20989;-70
2021/11/22 02:36:42;;;;;;;7.35;4.47;;;8.50;72.20;;;;;;2588210;53;20945;-70
2021/11/22 02:39:12;;;;;;;8.27;5.05;;;8.50;72.20;;;;;;2565794;53;20962;-70
2021/11/22 02:41:41;;;;;;;9.27;5.15;;;8.50;72.20;;;;;;2314146;55;21882;-71
2021/11/22 02:44:07;;;;;;;8.43;4.90;;;8.50;72.20;;;;;;2318919;55;21009;-69
2021/11/22 02:46:34;;;;;;;11.50;5.53;;;8.50;72.20;;;;;;2328326;54;21093;-71
2021/11/22 02:49:00;;;;;;;8.60;5.12;;;8.50;72.20;;;;;;2332103;54;21037;-70
2021/11/22 02:51:27;;;;;;;8.68;5.32;;;8.50;72.20;;;;;;2319907;54;21042;-70
2021/11/22 02:54:00;;;;;;;9.07;4.80;;;8.50;72.30;;;;;;2567186;53;20985;-70
2021/11/22 02:56:34;;;;;;;10.25;5.57;;;8.50;72.20;;;;;;2327426;54;21034;-70
2021/11/22 02:59:03;;;;;;;8.38;5.10;;;8.50;72.20;;;;;;2547029;54;21003;-69
2021/11/22 03:01:30;;;;;;;8.18;4.72;;;8.50;72.40;;;;;;2334055;54;20996;-70
2021/11/22 03:03:56;;;;;;;8.52;5.68;;;8.50;72.40;;;;;;2321871;54;20984;-70
2021/11/22 03:06:25;;;;;;;8.18;5.32;;;8.50;72.40;;;;;;2574772;53;21177;-71
2021/11/22 03:08:51;;;;;;;8.10;5.10;;;8.50;72.40;;;;;;2566687;53;20954;-71
2021/11/22 03:11:20;;;;;;;7.37;4.50;;;8.50;72.40;;;;;;2342235;54;20937;-69
2021/11/22 03:13:47;;;;;;;7.85;4.60;;;8.50;72.40;;;;;;2318837;54;21820;-70
2021/11/22 03:16:14;;;;;;;8.93;4.93;;;8.60;72.40;;;;;;2334078;54;21022;-71
2021/11/22 03:18:40;;;;;;;9.75;5.22;;;8.60;72.40;;;;;;2327160;54;20937;-69
2021/11/22 03:21:06;;;;;;;8.40;5.05;;;8.60;72.40;;;;;;2588498;53;20920;-70
2021/11/22 03:23:36;;;;;;;8.63;5.10;;;8.50;72.30;;;;;;2342353;54;20996;-70
2021/11/22 03:26:03;;;;;;;8.98;5.05;;;8.60;72.40;;;;;;2317732;54;21002;-70
2021/11/22 03:28:31;;;;;;;8.07;4.68;;;8.60;72.40;;;;;;2588905;53;21001;-70
2021/11/22 03:31:01;;;;;;;8.73;5.22;;;8.50;72.20;;;;;;2341760;54;20964;-70
2021/11/22 03:33:27;;;;;;;10.43;4.95;;;8.60;72.30;;;;;;2342064;54;21453;-71
2021/11/22 03:35:57;;;;;;;9.05;5.43;;;8.50;72.20;;;;;;2578861;53;21021;-70
2021/11/22 03:38:29;;;;;;;10.15;5.50;;;8.50;72.00;;;;;;2324034;54;20925;-70
2021/11/22 03:40:56;;;;;;;8.47;4.60;;;8.50;71.90;;;;;;2343692;54;20988;-70
2021/11/22 03:43:28;;;;;;;8.75;4.90;;;8.50;71.90;;;;;;2558116;53;20921;-70
2021/11/22 03:45:54;;;;;;;8.75;5.07;;;8.50;71.90;;;;;;2554981;53;20932;-71
2021/11/22 03:48:21;;;;;;;8.65;5.37;;;8.50;71.90;;;;;;2316178;54;21038;-71
2021/11/22 03:50:48;;;;;;;7.90;5.00;;;8.50;71.90;;;;;;2326437;54;21700;-71
2021/11/22 03:53:15;;;;;;;9.20;5.32;;;8.40;71.80;;;;;;2336048;54;20973;-71
2021/11/22 03:55:43;;;;;;;7.65;4.60;;;8.50;71.90;;;;;;2345560;54;21012;-70
2021/11/22 03:58:11;;;;;;;9.77;5.07;;;8.40;71.80;;;;;;2320641;54;20994;-70
2021/11/22 04:00:41;;;;;;;8.45;5.20;;;8.40;71.90;;;;;;2341515;54;20913;-69
2021/11/22 04:03:08;;;;;;;9.43;5.18;;;8.40;71.90;;;;;;2342240;54;20942;-70
2021/11/22 04:05:34;;;;;;;9.05;5.60;;;8.40;71.90;;;;;;2342471;54;20925;-70
2021/11/22 04:08:01;;;;;;;8.07;5.15;;;8.30;71.80;;;;;;2322500;54;20910;-71
2021/11/22 04:10:27;;;;;;;10.52;4.93;;;8.30;71.80;;;;;;2573201;53;21030;-70
2021/11/22 04:12:54;;;;;;;9.13;5.65;;;8.30;71.90;;;;;;2318259;54;21958;-71
2021/11/22 04:15:20;;;;;;;9.20;4.75;;;8.30;71.90;;;;;;2549303;54;22028;-70
2021/11/22 04:17:47;;;;;;;8.50;5.00;;;8.30;71.90;;;;;;2317838;54;20960;-71
2021/11/22 04:20:14;;;;;;;8.75;5.35;;;8.20;71.90;;;;;;2321856;54;20988;-72
2021/11/22 04:22:41;;;;;;;7.55;4.75;;;8.20;72.10;;;;;;2341881;54;20908;-71
2021/11/22 04:25:08;;;;;;;7.07;4.37;;;8.20;72.10;;;;;;2313648;54;20989;-71
2021/11/22 04:27:36;;;;;;;8.73;4.62;;;8.20;72.30;;;;;;2321139;54;21006;-71
2021/11/22 04:30:06;;;;;;;7.00;4.45;;;8.20;72.40;;;;;;2562097;53;20945;-71
2021/11/22 04:32:32;;;;;;;8.45;4.28;;;8.20;72.50;;;;;;2312660;54;21519;-70
2021/11/22 04:34:58;;;;;;;8.50;5.32;;;8.20;72.50;;;;;;2314373;54;20932;-70
2021/11/22 04:37:28;;;;;;;8.43;5.18;;;8.20;72.50;;;;;;2550852;53;20955;-71
2021/11/22 04:39:54;;;;;;;8.55;4.65;;;8.20;72.50;;;;;;2339308;54;21035;-71
2021/11/22 04:42:24;;;;;;;7.68;4.80;;;8.20;72.50;;;;;;2311230;54;21026;-69
2021/11/22 04:44:50;;;;;;;9.63;4.68;;;8.20;72.40;;;;;;2588249;53;20957;-71
2021/11/22 04:47:20;;;;;;;9.25;4.87;;;8.30;72.60;;;;;;2324749;54;21666;-71
2021/11/22 04:49:49;;;;;;;8.50;4.85;;;8.30;72.60;;;;;;2340207;54;21603;-70
2021/11/22 04:52:20;;;;;;;8.68;5.25;;;8.30;72.50;;;;;;2318310;55;20981;-71
2021/11/22 04:54:46;;;;;;;8.82;4.85;;;8.30;72.50;;;;;;2588205;53;21008;-71
2021/11/22 04:57:14;;;;;;;8.40;5.12;;;8.30;72.60;;;;;;2587453;53;20949;-70
2021/11/22 04:59:41;;;;;;;7.62;4.43;;;8.20;72.40;;;;;;2329415;54;21518;-70
2021/11/22 05:02:08;;;;;;;9.52;5.18;;;8.30;72.50;;;;;;2322694;54;20976;-70
2021/11/22 05:04:38;;;;;;;8.07;5.22;;;8.30;72.50;;;;;;2330702;54;22002;-71
2021/11/22 05:07:04;;;;;;;8.27;5.05;;;8.30;72.40;;;;;;2587841;53;20980;-70
2021/11/22 05:09:30;;;;;;;9.68;6.32;;;8.20;72.40;;;;;;2588630;53;20993;-70
2021/11/22 05:11:57;;;;;;;8.68;5.65;;;8.20;72.50;;;;;;2319246;54;20943;-71
2021/11/22 05:14:24;;;;;;;10.10;5.80;;;8.20;72.50;;;;;;2588002;53;20973;-70
2021/11/22 05:16:50;;;;;;;8.63;4.82;;;8.20;72.50;;;;;;2319120;54;21530;-71
2021/11/22 05:19:17;;;;;;;7.53;4.68;;;8.20;72.50;;;;;;2341776;54;26264;-70
2021/11/22 05:21:44;;;;;;;9.10;5.65;;;8.20;72.50;;;;;;2335432;54;21061;-69
2021/11/22 05:24:10;;;;;;;8.60;5.62;;;8.20;72.60;;;;;;2562616;53;21016;-71
2021/11/22 05:26:40;;;;;;;11.25;5.70;;;8.20;72.60;;;;;;2339973;54;20992;-70
2021/11/22 05:29:09;;;;;;;8.45;5.20;;;8.30;72.70;;;;;;2343795;54;20909;-71
2021/11/22 05:31:39;;;;;;;8.32;5.53;;;8.30;72.70;;;;;;2330602;54;20950;-71
2021/11/22 05:34:05;;;;;;;9.10;5.22;;;8.20;72.60;;;;;;2320239;54;20966;-71
2021/11/22 05:36:35;;;;;;;10.95;5.68;;;8.30;72.60;;;;;;2317519;54;21453;-71
2021/11/22 05:39:03;;;;;;;10.50;6.30;;;8.30;72.60;;;;;;2316576;54;20941;-71
2021/11/22 05:41:29;;;;;;;8.68;5.43;;;8.20;72.40;;;;;;2564656;53;21050;-70
2021/11/22 05:43:58;;;;;;;9.13;5.05;;;8.20;72.40;;;;;;2321691;54;21543;-71
2021/11/22 05:46:24;;;;;;;9.38;5.80;;;8.20;72.40;;;;;;2342099;54;20960;-70
2021/11/22 05:48:53;;;;;;;9.25;5.22;;;8.20;72.40;;;;;;2342660;54;20924;-70
2021/11/22 05:51:20;;;;;;;8.02;5.00;;;8.20;72.30;;;;;;2334848;54;21526;-70
2021/11/22 05:53:56;;;;;;;8.63;5.37;;;8.20;72.30;;;;;;2326169;54;21533;-70
2021/11/22 05:56:23;;;;;;;9.43;5.95;;;8.20;72.30;;;;;;2329125;54;21602;-70
2021/11/22 05:58:51;;;;;;;9.30;5.22;;;8.20;72.30;;;;;;2326578;54;20959;-69
2021/11/22 06:01:19;;;;;;;8.23;5.03;;;8.20;72.30;;;;;;2324598;54;20985;-71
2021/11/22 06:03:46;;;;;;;8.43;5.18;;;8.20;72.30;;;;;;2341015;54;21301;-71
2021/11/22 06:06:12;;;;;;;9.45;5.50;;;8.20;72.40;;;;;;2328620;54;21031;-70
2021/11/22 06:08:39;;;;;;;11.98;5.22;;;8.20;72.40;;;;;;2312001;54;20951;-70
2021/11/22 06:11:05;;;;;;;8.60;5.30;;;8.20;72.60;;;;;;2335879;54;20953;-69
2021/11/22 06:13:32;;;;;;;9.02;5.30;;;8.20;72.60;;;;;;2331482;54;21510;-70
2021/11/22 06:15:58;;;;;;;10.35;5.85;;;8.20;72.60;;;;;;2571182;53;21058;-70
2021/11/22 06:18:25;;;;;;;8.82;5.47;;;8.20;72.60;;;;;;2559669;53;20957;-70
2021/11/22 06:20:55;;;;;;;10.27;5.47;;;8.20;72.70;;;;;;2570844;53;20931;-70
2021/11/22 06:23:22;;;;;;;8.02;5.43;;;8.20;72.80;;;;;;2324106;54;21014;-71
2021/11/22 06:25:49;;;;;;;8.13;4.72;;;8.20;72.80;;;;;;2559043;53;21010;-71
2021/11/22 06:28:15;;;;;;;9.02;5.45;;;8.20;72.80;;;;;;2321435;54;21226;-71
2021/11/22 06:30:43;;;;;;;9.63;5.55;;;8.10;72.80;;;;;;2337050;54;20917;-71
2021/11/22 06:33:10;;;;;;;10.10;5.80;;;8.20;72.80;;;;;;2332478;54;21021;-69
2021/11/22 06:35:37;;;;;;;9.85;5.12;;;8.20;72.90;;;;;;2329429;54;21012;-70
2021/11/22 06:38:05;;;;;;;8.48;5.10;;;8.20;72.90;;;;;;2340922;54;20973;-71
2021/11/22 06:40:31;;;;;;;9.75;5.37;;;8.20;72.80;;;;;;2336463;54;21022;-71
2021/11/22 06:42:58;;;;;;;8.25;4.95;;;8.20;72.80;;;;;;2327335;54;20937;-71
2021/11/22 06:45:27;;;;;;;9.30;5.37;;;8.20;72.70;;;;;;2330181;54;20974;-70
2021/11/22 06:47:59;;;;;;;9.20;5.43;;;8.20;72.70;;;;;;2337927;54;21080;-70
2021/11/22 06:50:25;;;;;;;7.95;4.85;;;8.20;72.70;;;;;;2319552;54;20932;-71
2021/11/22 06:52:51;;;;;;;9.45;5.32;;;8.20;72.80;;;;;;2327292;54;21446;-71
2021/11/22 06:55:20;;;;;;;8.68;4.87;;;8.20;72.80;;;;;;2335411;54;20949;-71
2021/11/22 06:57:47;;;;;;;8.30;4.65;;;8.20;72.70;;;;;;2555669;53;21439;-71
2021/11/22 07:00:14;;;;;;;7.30;4.57;;;8.20;72.80;;;;;;2316834;54;20993;-71
2021/11/22 07:02:40;;;;;;;6.20;3.70;;;8.20;72.80;;;;;;2332958;54;20989;-69
2021/11/22 07:05:08;;;;;;;9.43;4.90;;;8.20;72.80;;;;;;2326190;54;21604;-71
2021/11/22 07:07:34;;;;;;;8.68;4.62;;;8.20;72.80;;;;;;2337261;54;20973;-71
2021/11/22 07:10:01;;;;;;;7.75;4.25;;;8.20;72.80;;;;;;2324697;54;21437;-71
2021/11/22 07:12:28;;;;;;;7.90;4.72;;;8.20;72.80;;;;;;2341761;54;20941;-70
2021/11/22 07:14:54;;;;;;;9.05;5.07;;;8.20;72.80;;;;;;2333277;54;20998;-70
2021/11/22 07:17:24;;;;;;;7.20;4.40;;;8.20;72.80;;;;;;2328108;54;20981;-70
2021/11/22 07:19:53;;;;;;;7.85;4.72;;;8.30;72.90;;;;;;2305117;55;21122;-71
2021/11/22 07:22:19;;;;;;;8.27;4.65;;;8.20;72.70;;;;;;2312764;55;20965;-71
2021/11/22 07:24:47;;;;;;;9.18;4.62;;;8.30;72.80;;;;;;2320115;54;20974;-71
2021/11/22 07:27:13;;;;;;;9.43;5.35;;;8.20;72.70;;;;;;2322110;54;20981;-70
2021/11/22 07:29:41;;;;;;;7.40;4.80;;;8.20;72.70;;;;;;2317029;54;21766;-70
2021/11/22 07:32:10;;;;;;;8.13;4.80;;;8.20;72.80;;;;;;2342141;54;21546;-71
2021/11/22 07:34:39;;;;;;;9.43;5.40;;;8.20;72.80;;;;;;2327278;54;21835;-69
2021/11/22 07:37:05;;;;;;;8.85;5.12;;;8.20;73.00;;;;;;2304616;54;21009;-69
2021/11/22 07:39:32;;;;;;;8.18;4.95;;;8.20;73.10;;;;;;2329132;54;20970;-71
2021/11/22 07:42:00;;;;;;;9.13;4.65;;;8.30;73.30;;;;;;2333852;54;20980;-69
2021/11/22 07:44:27;;;;;;;8.32;5.05;;;8.30;73.30;;;;;;2294691;54;21420;-71
2021/11/22 07:46:57;;;;;;;7.82;4.72;;;8.30;73.30;;;;;;2291733;55;21027;-69
2021/11/22 07:49:25;;;;;;;9.43;5.10;;;8.30;73.40;;;;;;2515230;54;21095;-70
2021/11/22 07:51:51;;;;;;;8.25;4.87;;;8.30;73.40;;;;;;2317327;54;20920;-70
2021/11/22 07:54:17;;;;;;;7.78;4.43;;;8.40;73.50;;;;;;2535445;54;20992;-71
2021/11/22 07:56:44;;;;;;;7.90;4.40;;;8.40;73.50;;;;;;2304770;54;20945;-71
2021/11/22 07:59:11;;;;;;;9.00;5.12;;;8.40;73.60;;;;;;2523691;54;21056;-71
2021/11/22 08:01:39;;;;;;;6.85;3.95;;;8.40;73.70;;;;;;2537741;54;20967;-69
2021/11/22 08:04:12;;;;;;;7.37;4.75;;;8.40;73.70;;;;;;2577287;53;20897;-69
2021/11/22 08:06:48;;;;;;;7.43;4.20;;;8.50;73.90;;;;;;2314461;54;21031;-70
2021/11/22 08:09:23;;;;;;;7.47;4.50;;;8.50;73.90;;;;;;2553370;54;21024;-70
2021/11/22 08:12:03;;;;;;;5.90;3.85;;;8.50;74.00;;;;;;2300631;54;20963;-71
2021/11/22 08:14:30;;;;;;;8.02;4.85;;;8.60;74.20;;;;;;2535919;54;20943;-71
2021/11/22 08:17:02;;;;;;;7.53;4.65;;;8.60;74.10;;;;;;2313743;55;20939;-71
2021/11/22 08:19:31;;;;;;;8.73;5.00;;;8.60;74.10;;;;;;2555187;53;22097;-70
2021/11/22 08:21:58;;;;;;;7.07;4.22;;;8.70;74.10;;;;;;2301073;54;21011;-71
2021/11/22 08:24:26;;;;;;;7.32;4.32;;;8.70;74.00;;;;;;2549997;54;21007;-71
2021/11/22 08:26:53;;;;;;;8.00;4.82;;;8.70;74.00;;;;;;2298092;54;20983;-71
2021/11/22 08:29:19;;;;;;;9.73;5.12;;;8.80;74.00;;;;;;2555483;53;20971;-71
2021/11/22 08:31:46;;;;;;;8.50;5.25;;;8.80;74.00;;;;;;2555922;54;21716;-71
2021/11/22 08:34:12;;;;;;;7.35;4.40;;;8.90;74.00;;;;;;2555857;54;21007;-71
2021/11/22 08:36:38;;;;;;;9.15;5.28;;;8.90;74.00;;;;;;2315175;54;20987;-71
2021/11/22 08:39:05;;;;;;;9.13;5.53;;;8.90;74.00;;;;;;2582717;53;21087;-71
2021/11/22 08:41:33;;;;;;;8.80;5.28;;;9.00;74.00;;;;;;2322751;54;20925;-70
2021/11/22 08:44:00;;;;;;;7.75;4.82;;;9.00;74.00;;;;;;2580334;53;20957;-69
2021/11/22 08:46:26;;;;;;;8.18;4.82;;;9.00;74.00;;;;;;2321662;54;21004;-70
2021/11/22 08:49:13;;;;;;;8.30;4.85;;;9.00;73.90;;;;;;2578597;53;22052;-70
2021/11/22 08:51:43;;;;;;;7.60;4.53;;;9.00;73.80;;;;;;2324419;54;21020;-70
2021/11/22 08:54:09;;;;;;;8.80;4.95;;;9.10;73.90;;;;;;2578973;53;21034;-70
2021/11/22 08:56:36;;;;;;;7.78;4.70;;;9.10;73.90;;;;;;2322748;54;20949;-71
2021/11/22 08:59:02;;;;;;;7.95;4.87;;;9.10;74.00;;;;;;2564172;53;21535;-71
2021/11/22 09:01:29;;;;;;;7.50;4.18;;;9.10;74.10;;;;;;2319973;54;21039;-71
2021/11/22 09:03:56;;;;;;;6.65;4.25;;;9.20;74.20;;;;;;2567317;53;21513;-71
2021/11/22 09:06:23;;;;;;;6.97;3.95;;;9.20;74.20;;;;;;2337552;54;21471;-72
2021/11/22 09:08:49;;;;;;;9.27;4.65;;;9.20;74.30;;;;;;2323864;54;21021;-71
2021/11/22 09:11:16;;;;;;;7.25;4.60;;;9.20;74.20;;;;;;2332184;54;20930;-71
2021/11/22 09:13:43;;;;;;;8.95;5.10;;;9.30;74.30;;;;;;2329609;54;20977;-71
2021/11/22 09:16:10;;;;;;;10.23;5.00;;;9.30;74.30;;;;;;2318769;55;21738;-71
2021/11/22 09:18:39;;;;;;;6.62;4.12;;;9.40;74.40;;;;;;2588390;53;21402;-69
2021/11/22 09:21:05;;;;;;;7.28;4.35;;;9.40;74.30;;;;;;2329004;54;20986;-71
2021/11/22 09:23:32;;;;;;;7.72;4.57;;;9.50;74.40;;;;;;2577363;53;20909;-71
2021/11/22 09:25:59;;;;;;;7.82;4.70;;;9.50;74.40;;;;;;2342308;54;20992;-71
2021/11/22 09:28:26;;;;;;;8.43;4.90;;;9.50;74.40;;;;;;2341277;54;20945;-72
2021/11/22 09:30:54;;;;;;;7.80;4.70;;;9.60;74.50;;;;;;2342461;54;20989;-71
2021/11/22 09:33:20;;;;;;;8.73;4.87;;;9.60;74.50;;;;;;2557010;53;20990;-71
2021/11/22 09:35:47;;;;;;;7.18;4.35;;;9.60;74.40;;;;;;2304538;54;20942;-72
2021/11/22 09:38:13;;;;;;;7.00;4.55;;;9.70;74.50;;;;;;2547645;54;21698;-71
2021/11/22 09:40:40;;;;;;;7.15;4.28;;;9.70;74.50;;;;;;2319650;54;20933;-71
2021/11/22 09:43:06;;;;;;;6.47;3.95;;;9.80;74.50;;;;;;2566072;53;21036;-69
2021/11/22 09:45:34;;;;;;;7.18;4.28;;;9.80;74.30;;;;;;2572936;53;20945;-70
2021/11/22 09:48:02;;;;;;;6.97;4.03;;;9.80;74.30;;;;;;2568982;53;21633;-71
2021/11/22 09:50:32;;;;;;;6.20;4.00;;;9.90;74.30;;;;;;2315397;54;21811;-72
2021/11/22 09:53:04;;;;;;;5.95;3.80;;;9.90;74.20;;;;;;2573092;53;20953;-71
2021/11/22 09:55:31;;;;;;;6.43;3.80;;;9.90;74.20;;;;;;2333994;54;20946;-71
2021/11/22 09:57:59;;;;;;;8.00;3.67;;;10.00;73.20;;;;;;2574416;53;21044;-72
2021/11/22 10:00:43;;;;;;;6.28;3.72;;;10.00;73.10;;;;;;2342418;54;20929;-72
2021/11/22 10:03:11;;;;;;;7.12;3.45;;;10.00;72.90;;;;;;2555747;53;21033;-71
2021/11/22 10:05:42;;;;;;;6.70;3.22;;;10.00;72.90;;;;;;2335520;54;21038;-72
2021/11/22 10:08:18;;;;;;;5.37;3.00;;;10.10;73.00;;;;;;2553859;53;21528;-70
2021/11/22 10:10:54;;;;;;;5.05;2.90;;;10.10;72.90;;;;;;2311430;54;20936;-71
2021/11/22 10:13:40;;;;;;;5.37;2.83;;;10.10;72.70;;;;;;2550185;53;20970;-71
2021/11/22 10:16:28;;;;;;;5.53;3.28;;;10.10;72.70;;;;;;2307002;54;21477;-71
2021/11/22 10:18:59;;;;;;;5.32;3.00;;;10.20;72.70;;;;;;2317862;54;21029;-71
2021/11/22 10:21:40;;;;;;;4.55;2.95;;;10.20;72.90;;;;;;2330852;54;20958;-71
2021/11/22 10:24:09;;;;;;;4.82;2.72;;;10.20;72.70;;;;;;2337162;54;20936;-72
2021/11/22 10:26:44;;;;;;;6.55;3.15;;;10.20;72.80;;;;;;2319197;54;21010;-72
2021/11/22 10:29:21;;;;;;;5.28;3.17;;;10.20;72.70;;;;;;2588272;53;21751;-72
2021/11/22 10:31:52;;;;;;;4.60;2.67;;;10.30;72.90;;;;;;2335487;54;20939;-72
2021/11/22 10:34:18;;;;;;;4.75;2.92;;;10.30;72.90;;;;;;2556776;53;21005;-72
2021/11/22 10:36:44;;;;;;;4.00;2.35;;;10.30;72.90;;;;;;2320264;54;20982;-72
2021/11/22 10:39:16;;;;;;;4.03;2.37;;;10.30;72.90;;;;;;2563508;53;20977;-71
2021/11/22 10:41:48;;;;;;;4.20;2.53;;;10.30;72.90;;;;;;2569434;53;21052;-72
2021/11/22 10:44:17;;;;;;;4.43;2.42;;;10.40;72.90;;;;;;2548907;53;20999;-72
2021/11/22 10:46:50;;;;;;;3.45;1.98;;;10.40;73.00;;;;;;2333284;54;21794;-72
2021/11/22 10:49:31;;;;;;;4.35;2.42;;;10.40;73.10;;;;;;2588496;53;21065;-71
2021/11/22 10:52:13;;;;;;;3.58;2.08;;;10.40;73.10;;;;;;2319118;55;21034;-71
2021/11/22 10:54:51;;;;;;;;;;;10.50;73.00;;;;;;2588221;53;20965;-72
2021/11/22 10:57:17;;;;;;;3.10;1.98;;;10.50;72.40;;;;;;2320200;54;20130;-71
2021/11/22 10:59:45;;;;;;;4.12;2.53;;;10.50;72.90;;;;;;2576397;53;21632;-71
2021/11/22 11:02:11;;;;;;;4.87;2.75;;;10.50;72.80;;;;;;2310226;54;21012;-69
2021/11/22 11:04:43;;;;;;;4.20;2.37;;;10.50;72.80;;;;;;2560487;53;21037;-71
2021/11/22 11:07:09;;;;;;;5.37;2.85;;;10.50;72.70;;;;;;2337736;54;21439;-72
2021/11/22 11:09:42;;;;;;;5.25;3.28;;;10.50;72.70;;;;;;2588662;53;20940;-72
2021/11/22 11:13:08;;;;;;;6.03;3.15;;;10.50;72.70;;;;;;2346220;54;20917;-72
2021/11/22 11:15:36;;;;;;;7.93;3.65;;;10.50;72.10;;;;;;2568414;53;21000;-71
2021/11/22 11:18:04;;;;;;;7.78;4.12;;;10.50;72.50;;;;;;2579397;53;20929;-70
2021/11/22 11:20:33;;;;;;;5.78;3.87;;;10.50;72.40;;;;;;2585633;53;20999;-70
2021/11/22 11:23:01;;;;;;;6.68;3.65;;;10.50;72.40;;;;;;2548523;54;21091;-72
2021/11/22 11:25:30;;;;;;;7.07;3.75;;;10.50;72.40;;;;;;2547962;54;21937;-71
2021/11/22 11:28:09;;;;;;;6.10;3.75;;;10.50;72.40;;;;;;2322367;54;21001;-72
2021/11/22 11:30:37;;;;;;;9.13;4.50;;;10.50;72.50;;;;;;2533498;53;20970;-72
2021/11/22 11:33:07;;;;;;;7.30;4.53;;;10.50;72.50;;;;;;2316726;54;20984;-72
2021/11/22 11:35:46;;;;;;;7.32;4.45;;;10.50;72.50;;;;;;2319680;54;20995;-71
2021/11/22 11:41:12;;;;;;;7.70;4.65;;;10.50;72.50;;;;;;2307774;54;20969;-71
2021/11/22 11:43:47;;;;;;;9.38;4.90;;;10.50;72.10;;;;;;2586054;53;20908;-71
2021/11/22 11:46:48;;;;;;;7.35;5.05;;;10.40;72.10;;;;;;2290562;54;2279255;-71
2021/11/22 11:49:17;;;;;;;6.65;4.32;;;10.40;71.90;;;;;;2564330;53;21826;-72
2021/11/22 11:51:51;;;;;;;8.23;4.05;;;10.40;72.30;;;;;;2319826;54;20993;-71
2021/11/22 11:54:32;;;;;;;6.87;4.30;;;10.40;72.30;;;;;;2322723;54;21072;-72
2021/11/22 11:57:05;;;;;;;8.88;4.28;;;10.40;72.30;;;;;;2292025;54;21103;-71
2021/11/22 11:59:42;;;;;;;6.75;4.70;;;10.40;72.30;;;;;;2303396;54;21029;-71
2021/11/22 12:02:35;;;;;;;8.20;4.55;;;10.40;72.30;;;;;;2317266;54;21048;-71
2021/11/22 12:05:10;;;;;;;6.20;4.07;;;10.30;72.30;;;;;;2547046;53;21128;-70
2021/11/22 12:07:48;;;;;;;7.28;4.30;;;10.30;72.20;;;;;;2342841;54;20941;-70
2021/11/22 12:10:24;;;;;;;8.35;4.32;;;10.30;72.40;;;;;;2339973;54;20989;-71
2021/11/22 12:13:14;;;;;;;7.28;4.10;;;10.30;72.30;;;;;;2335261;54;21821;-71
2021/11/22 12:15:47;;;;;;;8.40;4.20;;;10.30;72.20;;;;;;2572111;53;20984;-71
2021/11/22 12:18:33;;;;;;;6.20;3.92;;;10.20;72.40;;;;;;2553873;53;20929;-69
2021/11/22 12:21:04;;;;;;;6.53;4.00;;;10.30;72.50;;;;;;2560393;53;20939;-70
2021/11/22 12:23:50;;;;;;;6.25;3.87;;;10.30;72.50;;;;;;2311454;54;20975;-70
2021/11/22 12:26:27;;;;;;;7.70;3.95;;;10.30;72.20;;;;;;2564348;53;20945;-72
2021/11/22 12:28:55;;;;;;;5.80;3.67;;;10.30;72.40;;;;;;2586379;53;21030;-70
2021/11/22 12:31:26;;;;;;;7.28;3.78;;;10.30;72.60;;;;;;2572092;53;21034;-72
2021/11/22 12:34:07;;;;;;;6.95;3.92;;;10.30;72.60;;;;;;2550810;54;21031;-71
2021/11/22 12:36:44;;;;;;;6.45;4.05;;;10.30;72.40;;;;;;2562917;53;21176;-70
2021/11/22 12:39:17;;;;;;;;;;;10.30;72.60;;;;;;2321962;54;20970;-71
2021/11/22 12:41:49;;;;;;;6.15;3.17;;;10.30;72.10;;;;;;2564467;53;20080;-71
2021/11/22 12:44:21;;;;;;;6.20;3.80;;;10.30;72.70;;;;;;2341620;54;20945;-70
2021/11/22 12:46:55;;;;;;;8.60;4.00;;;10.30;72.90;;;;;;2586558;53;21016;-70
2021/11/22 12:49:41;;;;;;;9.23;4.05;;;10.30;72.90;;;;;;2342287;54;20945;-71
2021/11/22 12:52:28;;;;;;;7.72;3.85;;;10.30;72.90;;;;;;2537045;53;21004;-72
2021/11/22 12:55:01;;;;;;;7.55;4.37;;;10.40;73.30;;;;;;2307699;54;21031;-70
2021/11/22 12:57:35;;;;;;;7.00;3.53;;;10.40;73.40;;;;;;2335012;54;21012;-71
2021/11/22 13:01:54;;;;;;;7.87;4.12;;;10.40;73.50;;;;;;2344132;54;20916;-70
2021/11/22 13:04:41;;;;;;;10.25;4.15;;;10.50;73.00;;;;;;2322232;54;20966;-71
2021/11/22 13:07:47;;;;;;;10.30;4.12;;;10.50;73.30;;;;;;2341859;54;20969;-69
2021/11/22 13:10:38;;;;;;;6.45;3.72;;;10.50;73.10;;;;;;2562360;53;21788;-71
2021/11/22 13:13:12;;;;;;;7.62;3.67;;;10.60;73.20;;;;;;2546712;54;21023;-71